Time;durP1;ratioP1;P1;durP2;ratioP2;P2;SDS_P1;SDS_P2;PMS_P1;PMS_P2;Temp;Humidity;BMP_temperature;BMP_pressure;BME280_temperature;BME280_humidity;BME280_pressure;Samples;Min_cycle;Max_cycle;Signal;HPM_P1;HPM_P2
2021/12/04 00:00:07;;;;;;;0.30;0.30;;;17.70;62.40;;;;;;5124732;27;45310;-76
2021/12/04 00:02:34;;;;;;;0.45;0.20;;;17.60;63.30;;;;;;5134110;27;45329;-75
2021/12/04 00:05:02;;;;;;;0.38;0.38;;;17.70;63.80;;;;;;5146139;27;47286;-75
2021/12/04 00:07:32;;;;;;;0.30;0.30;;;17.70;64.40;;;;;;5132568;27;45289;-76
2021/12/04 00:10:01;;;;;;;0.80;0.30;;;17.70;64.00;;;;;;5131931;27;45371;-75
2021/12/04 00:12:31;;;;;;;0.30;0.30;;;17.70;65.40;;;;;;5123629;27;45440;-75
2021/12/04 00:14:58;;;;;;;0.63;0.30;;;17.70;65.40;;;;;;5124496;27;45720;-75
2021/12/04 00:17:24;;;;;;;1.65;0.70;;;17.70;66.20;;;;;;5125399;27;45285;-75
2021/12/04 00:19:51;;;;;;;0.75;0.30;;;17.80;66.00;;;;;;5126351;27;45369;-75
2021/12/04 00:22:18;;;;;;;0.20;0.20;;;17.80;66.20;;;;;;5126832;27;45274;-75
2021/12/04 00:24:45;;;;;;;0.32;0.30;;;17.80;66.10;;;;;;5125820;27;48174;-75
2021/12/04 00:27:12;;;;;;;0.40;0.30;;;17.70;65.60;;;;;;5120059;27;45135;-75
2021/12/04 00:29:41;;;;;;;0.10;0.10;;;17.70;65.70;;;;;;5120730;27;45212;-75
2021/12/04 00:32:12;;;;;;;0.40;0.30;;;17.70;65.70;;;;;;5124839;27;46863;-75
2021/12/04 00:34:42;;;;;;;0.30;0.25;;;17.70;65.60;;;;;;5128827;27;47870;-75
2021/12/04 00:37:27;;;;;;;0.15;0.10;;;17.70;66.10;;;;;;5122257;27;45159;-75
2021/12/04 00:50:49;;;;;;;0.22;0.20;;;17.70;65.50;;;;;;5132909;27;45268;-75
2021/12/04 00:53:16;;;;;;;0.98;0.40;;;17.70;65.50;;;;;;5121154;27;45443;-76
2021/12/04 00:55:43;;;;;;;0.13;0.10;;;17.70;65.30;;;;;;5122879;27;47849;-75
2021/12/04 00:58:10;;;;;;;0.20;0.13;;;17.70;65.60;;;;;;5130805;27;45299;-75
2021/12/04 01:00:40;;;;;;;0.32;0.30;;;17.70;65.60;;;;;;5119824;27;45305;-76
2021/12/04 01:03:08;;;;;;;0.73;0.13;;;17.70;66.10;;;;;;5128082;27;45466;-75
2021/12/04 01:05:35;;;;;;;0.30;0.20;;;17.70;66.30;;;;;;5130864;27;46638;-76
2021/12/04 01:08:02;;;;;;;0.20;0.10;;;17.70;66.20;;;;;;5138431;27;46230;-75
2021/12/04 01:10:29;;;;;;;0.20;0.20;;;17.70;66.40;;;;;;5150147;27;45311;-76
2021/12/04 01:13:00;;;;;;;0.10;0.10;;;17.70;66.20;;;;;;5138441;27;45263;-76
2021/12/04 01:15:27;;;;;;;0.45;0.30;;;17.70;66.40;;;;;;5126574;27;46696;-75
2021/12/04 01:17:55;;;;;;;0.73;0.40;;;17.70;66.40;;;;;;5135677;27;45148;-75
2021/12/04 01:20:22;;;;;;;0.38;0.28;;;17.70;66.40;;;;;;5140958;27;45240;-75
2021/12/04 01:22:49;;;;;;;0.50;0.30;;;17.70;66.20;;;;;;5126982;27;45605;-75
2021/12/04 01:25:16;;;;;;;1.25;0.20;;;17.70;66.30;;;;;;5136456;27;45482;-75
2021/12/04 01:27:45;;;;;;;0.20;0.20;;;17.70;65.80;;;;;;5119112;27;45236;-75
2021/12/04 01:30:13;;;;;;;0.20;0.17;;;17.70;65.60;;;;;;5117008;27;45328;-75
2021/12/04 01:32:40;;;;;;;0.20;0.20;;;17.70;65.70;;;;;;5110444;27;45272;-76
2021/12/04 01:35:09;;;;;;;0.45;0.20;;;17.70;65.80;;;;;;5124896;27;46441;-77
2021/12/04 01:37:36;;;;;;;0.13;0.13;;;17.70;65.40;;;;;;5127805;27;45294;-75
2021/12/04 01:40:04;;;;;;;0.20;0.20;;;17.70;65.40;;;;;;5128467;27;45345;-75
2021/12/04 01:42:34;;;;;;;0.47;0.28;;;17.70;65.10;;;;;;5130402;27;45202;-75
2021/12/04 01:45:01;;;;;;;0.10;0.10;;;17.70;65.00;;;;;;5132117;27;45416;-76
2021/12/04 01:47:28;;;;;;;0.22;0.20;;;17.70;65.00;;;;;;5131784;27;45347;-75
2021/12/04 01:49:55;;;;;;;0.20;0.20;;;17.70;64.70;;;;;;5132087;27;45361;-75
2021/12/04 01:52:24;;;;;;;0.45;0.20;;;17.70;64.20;;;;;;5130596;27;45118;-76
2021/12/04 01:54:51;;;;;;;0.40;0.20;;;17.70;64.80;;;;;;5131766;27;46133;-75
2021/12/04 01:57:17;;;;;;;0.10;0.10;;;17.70;64.70;;;;;;5131510;27;45802;-76
2021/12/04 01:59:45;;;;;;;0.80;0.30;;;17.70;64.50;;;;;;5131611;27;45624;-75
2021/12/04 02:02:12;;;;;;;0.28;0.20;;;17.70;64.30;;;;;;5130310;27;45383;-75
2021/12/04 02:04:39;;;;;;;0.10;0.10;;;17.70;64.40;;;;;;5113872;27;46458;-75
2021/12/04 02:07:08;;;;;;;0.75;0.20;;;17.70;64.00;;;;;;5131556;27;45312;-76
2021/12/04 02:09:37;;;;;;;0.40;0.30;;;17.70;63.70;;;;;;5125376;27;45260;-75
2021/12/04 02:12:06;;;;;;;0.30;0.20;;;17.70;64.10;;;;;;5121198;27;45357;-75
2021/12/04 02:14:33;;;;;;;0.38;0.30;;;17.70;63.90;;;;;;5127340;27;47089;-75
2021/12/04 02:17:01;;;;;;;0.35;0.20;;;17.70;64.20;;;;;;5114195;27;45416;-75
2021/12/04 02:19:29;;;;;;;0.10;0.10;;;17.70;62.30;;;;;;5128123;27;45940;-75
2021/12/04 02:21:57;;;;;;;0.13;0.10;;;17.70;62.60;;;;;;5129130;27;45250;-76
2021/12/04 02:24:24;;;;;;;0.10;0.10;;;17.70;61.90;;;;;;5131695;27;45550;-75
2021/12/04 02:26:52;;;;;;;0.47;0.17;;;17.70;62.40;;;;;;5128219;27;45417;-75
2021/12/04 02:29:19;;;;;;;0.30;0.20;;;17.70;62.40;;;;;;5130676;27;45522;-75
2021/12/04 02:31:47;;;;;;;0.30;0.20;;;17.70;62.50;;;;;;5129088;27;45267;-75
2021/12/04 02:34:20;;;;;;;0.10;0.10;;;17.60;61.90;;;;;;5118363;27;47503;-75
2021/12/04 02:36:47;;;;;;;0.35;0.20;;;17.70;61.50;;;;;;5127727;27;45231;-75
2021/12/04 02:39:23;;;;;;;0.30;0.10;;;17.60;61.60;;;;;;5130473;27;45159;-75
2021/12/04 02:41:50;;;;;;;0.10;0.10;;;17.60;62.00;;;;;;5131845;27;45373;-75
2021/12/04 02:44:17;;;;;;;0.40;0.10;;;17.70;61.20;;;;;;5113478;27;45482;-75
2021/12/04 02:46:44;;;;;;;0.20;0.20;;;17.70;61.20;;;;;;5116979;27;45208;-75
2021/12/04 02:49:13;;;;;;;0.17;0.17;;;17.70;61.40;;;;;;5124787;27;45196;-75
2021/12/04 02:51:39;;;;;;;0.10;0.10;;;17.70;61.80;;;;;;5122486;27;45348;-75
2021/12/04 02:54:07;;;;;;;0.75;0.15;;;17.70;62.10;;;;;;5130491;27;47530;-75
2021/12/04 02:56:35;;;;;;;1.65;0.20;;;17.70;62.10;;;;;;5130912;27;45522;-76
2021/12/04 02:59:03;;;;;;;0.10;0.10;;;17.70;62.30;;;;;;5130716;27;45214;-75
2021/12/04 03:01:30;;;;;;;0.25;0.20;;;17.70;62.50;;;;;;5126134;27;45305;-75
2021/12/04 03:04:06;;;;;;;0.10;0.10;;;17.70;62.40;;;;;;5116962;27;46407;-75
2021/12/04 03:06:39;;;;;;;0.25;0.17;;;17.70;62.60;;;;;;5133190;27;45189;-75
2021/12/04 03:09:06;;;;;;;0.10;0.10;;;17.70;62.20;;;;;;5130093;27;45239;-75
2021/12/04 03:11:34;;;;;;;0.00;0.00;;;17.70;62.20;;;;;;5130687;27;45405;-75
2021/12/04 03:14:01;;;;;;;0.10;0.10;;;17.70;62.10;;;;;;5121644;27;47372;-75
2021/12/04 03:16:28;;;;;;;0.20;0.10;;;17.70;61.60;;;;;;5131204;27;45243;-77
2021/12/04 03:18:55;;;;;;;0.63;0.20;;;17.70;61.40;;;;;;5129128;27;45286;-77
2021/12/04 03:21:23;;;;;;;0.20;0.20;;;17.70;61.00;;;;;;5119455;27;45163;-77
2021/12/04 03:23:55;;;;;;;0.10;0.10;;;17.70;61.00;;;;;;5127540;27;46237;-77
2021/12/04 03:26:22;;;;;;;0.55;0.32;;;17.70;61.00;;;;;;5129669;27;45580;-76
2021/12/04 03:28:52;;;;;;;0.35;0.20;;;17.70;60.90;;;;;;5131105;27;45233;-76
2021/12/04 03:31:24;;;;;;;0.30;0.20;;;17.70;60.50;;;;;;5128907;27;45454;-76
2021/12/04 03:42:05;;;;;;;0.30;0.20;;;17.70;60.20;;;;;;5128980;27;45168;-76
2021/12/04 03:44:33;;;;;;;0.20;0.20;;;17.70;60.10;;;;;;5130663;27;45305;-77
2021/12/04 03:47:00;;;;;;;0.30;0.30;;;17.70;60.90;;;;;;5129723;27;45164;-76
2021/12/04 03:49:27;;;;;;;0.30;0.20;;;17.70;60.90;;;;;;5113500;27;45197;-76
2021/12/04 03:51:54;;;;;;;0.10;0.10;;;17.70;61.30;;;;;;5113778;27;45158;-76
2021/12/04 03:54:21;;;;;;;0.65;0.20;;;17.70;61.50;;;;;;5130022;27;47252;-76
2021/12/04 03:56:50;;;;;;;0.30;0.28;;;17.70;61.20;;;;;;5128765;27;45862;-76
2021/12/04 03:59:18;;;;;;;0.20;0.20;;;17.70;61.50;;;;;;5129836;27;45300;-76
2021/12/04 04:01:47;;;;;;;0.35;0.30;;;17.70;61.00;;;;;;5112968;27;45538;-76
2021/12/04 04:04:13;;;;;;;1.23;0.20;;;17.70;61.10;;;;;;5129088;27;45393;-76
2021/12/04 04:06:40;;;;;;;0.13;0.13;;;17.70;61.10;;;;;;5128720;27;45351;-76
2021/12/04 04:09:07;;;;;;;0.68;0.35;;;17.70;60.70;;;;;;5129971;27;45319;-76
2021/12/04 04:11:36;;;;;;;0.20;0.20;;;17.70;60.40;;;;;;5127949;27;45266;-76
2021/12/04 04:14:03;;;;;;;0.25;0.25;;;17.70;59.70;;;;;;5122130;27;45658;-76
2021/12/04 04:16:30;;;;;;;0.20;0.20;;;17.70;59.80;;;;;;5130043;27;45281;-76
2021/12/04 04:18:59;;;;;;;0.20;0.20;;;17.60;59.40;;;;;;5127760;27;45282;-76
2021/12/04 04:21:26;;;;;;;0.35;0.32;;;17.70;59.30;;;;;;5127927;27;45395;-76
2021/12/04 04:23:52;;;;;;;0.20;0.20;;;17.70;59.50;;;;;;5126492;27;46180;-76
2021/12/04 04:26:20;;;;;;;0.50;0.40;;;17.60;59.40;;;;;;5128702;27;45264;-76
2021/12/04 04:28:47;;;;;;;0.20;0.20;;;17.60;59.20;;;;;;5128841;27;45260;-76
2021/12/04 04:31:14;;;;;;;0.30;0.30;;;17.60;58.90;;;;;;5124935;27;45415;-76
2021/12/04 04:33:43;;;;;;;0.17;0.17;;;17.60;58.80;;;;;;5129129;27;48136;-76
2021/12/04 04:36:22;;;;;;;0.20;0.20;;;17.60;58.80;;;;;;5128660;27;45233;-76
2021/12/04 04:39:01;;;;;;;1.02;0.50;;;17.50;58.70;;;;;;5119089;27;45435;-76
2021/12/04 04:58:22;;;;;;;0.40;0.32;;;17.70;59.00;;;;;;5045465;28;45316;-76
2021/12/04 05:01:16;;;;;;;1.20;0.40;;;17.70;59.70;;;;;;5105033;27;45348;-76
2021/12/04 05:12:02;;;;;;;0.88;0.57;;;17.70;58.50;;;;;;5128345;27;45144;-76
2021/12/04 05:14:29;;;;;;;0.50;0.40;;;17.70;58.40;;;;;;5126359;27;45842;-76
2021/12/04 05:17:03;;;;;;;0.43;0.38;;;17.70;58.00;;;;;;5312020;22;47246;-76
2021/12/04 05:19:37;;;;;;;0.60;0.50;;;17.70;57.70;;;;;;5054538;28;45343;-75
2021/12/04 05:22:05;;;;;;;0.47;0.47;;;17.60;57.90;;;;;;5069002;28;45567;-75
2021/12/04 05:24:33;;;;;;;0.38;0.35;;;17.70;58.10;;;;;;5053604;28;45237;-75
2021/12/04 05:27:00;;;;;;;0.88;0.50;;;17.60;57.70;;;;;;5063441;28;46178;-75
2021/12/04 05:29:27;;;;;;;0.75;0.60;;;17.70;57.80;;;;;;5073832;28;45549;-75
2021/12/04 05:31:54;;;;;;;0.77;0.60;;;17.60;57.30;;;;;;5060660;28;45295;-74
2021/12/04 05:34:21;;;;;;;0.55;0.50;;;17.70;57.80;;;;;;5071553;28;45253;-74
2021/12/04 05:36:48;;;;;;;0.32;0.32;;;17.60;57.40;;;;;;5068774;28;46766;-74
2021/12/04 05:39:15;;;;;;;0.30;0.30;;;17.60;58.30;;;;;;5075274;28;45438;-74
2021/12/04 05:41:43;;;;;;;0.52;0.50;;;17.70;57.60;;;;;;5086402;28;45196;-74
2021/12/04 05:44:11;;;;;;;0.50;0.40;;;17.70;57.00;;;;;;5088201;28;45193;-75
2021/12/04 05:46:43;;;;;;;0.70;0.43;;;17.70;58.50;;;;;;5072172;28;47717;-74
2021/12/04 05:49:13;;;;;;;0.30;0.30;;;17.70;57.30;;;;;;5072097;28;45246;-74
2021/12/04 05:54:43;;;;;;;0.30;0.30;;;17.70;58.40;;;;;;5076714;28;45240;-74
2021/12/04 05:57:13;;;;;;;0.77;0.50;;;17.70;58.70;;;;;;5083836;28;47421;-74
2021/12/04 05:59:40;;;;;;;0.55;0.47;;;17.70;58.10;;;;;;5078784;28;45938;-74
2021/12/04 06:02:07;;;;;;;0.60;0.32;;;17.70;57.50;;;;;;5084385;28;45186;-74
2021/12/04 06:04:34;;;;;;;0.55;0.45;;;17.70;56.70;;;;;;5056058;28;45341;-74
2021/12/04 06:07:01;;;;;;;0.45;0.45;;;17.70;57.40;;;;;;5065996;28;46416;-74
2021/12/04 06:09:28;;;;;;;0.50;0.40;;;17.60;57.10;;;;;;5064410;28;46276;-74
2021/12/04 06:11:57;;;;;;;0.40;0.40;;;17.60;58.10;;;;;;5073963;28;45236;-74
2021/12/04 06:14:26;;;;;;;0.40;0.40;;;17.60;56.70;;;;;;5070455;28;45496;-74
2021/12/04 06:16:53;;;;;;;0.65;0.50;;;17.60;57.50;;;;;;5062858;28;47096;-74
2021/12/04 06:22:37;;;;;;;0.52;0.47;;;17.60;57.30;;;;;;5066011;28;45409;-75
2021/12/04 06:24:56;;;;;;;0.32;0.20;;;17.60;57.50;;;;;;5064400;28;45205;-75
2021/12/04 06:27:23;;;;;;;0.38;0.38;;;17.60;57.20;;;;;;5066924;28;47139;-75
2021/12/04 06:29:51;;;;;;;0.68;0.50;;;17.60;57.50;;;;;;5063514;28;45333;-74
2021/12/04 06:32:19;;;;;;;0.45;0.45;;;17.60;57.00;;;;;;5077827;28;45282;-74
2021/12/04 06:34:46;;;;;;;0.60;0.50;;;17.60;57.50;;;;;;5074800;28;45270;-74
2021/12/04 06:37:13;;;;;;;0.50;0.40;;;17.60;56.70;;;;;;5066077;28;47896;-74
2021/12/04 06:39:40;;;;;;;0.30;0.30;;;17.60;56.70;;;;;;5073612;28;45490;-74
2021/12/04 06:42:07;;;;;;;0.30;0.30;;;17.60;56.60;;;;;;5055428;28;45545;-74
2021/12/04 06:44:33;;;;;;;1.02;0.52;;;17.60;57.10;;;;;;5071620;28;45272;-74
2021/12/04 06:47:02;;;;;;;0.85;0.43;;;17.60;56.80;;;;;;5083211;28;46990;-74
2021/12/04 06:49:32;;;;;;;0.25;0.25;;;17.60;57.10;;;;;;5070490;28;45375;-74
2021/12/04 06:52:02;;;;;;;0.50;0.30;;;17.60;56.10;;;;;;5075443;28;45347;-74
2021/12/04 06:54:33;;;;;;;0.30;0.30;;;17.60;58.10;;;;;;5068924;28;45177;-75
2021/12/04 06:57:00;;;;;;;0.50;0.50;;;17.60;56.20;;;;;;5059416;28;46323;-74
2021/12/04 06:59:29;;;;;;;0.70;0.40;;;17.70;56.50;;;;;;5059932;28;45272;-74
2021/12/04 07:01:56;;;;;;;0.30;0.30;;;17.60;56.60;;;;;;5060031;28;45298;-74
2021/12/04 07:04:29;;;;;;;0.40;0.30;;;17.60;56.70;;;;;;5059491;28;45676;-74
2021/12/04 07:06:56;;;;;;;0.30;0.30;;;17.60;56.80;;;;;;5064830;28;45382;-74
2021/12/04 07:09:23;;;;;;;0.45;0.45;;;17.60;57.00;;;;;;5068503;28;45584;-74
2021/12/04 07:11:50;;;;;;;0.50;0.32;;;17.60;56.30;;;;;;5063823;28;45279;-74
2021/12/04 07:14:16;;;;;;;0.30;0.30;;;17.60;56.70;;;;;;5065359;28;45343;-74
2021/12/04 07:16:44;;;;;;;0.30;0.30;;;17.60;56.60;;;;;;5068012;28;45418;-74
2021/12/04 07:19:11;;;;;;;0.40;0.40;;;17.50;56.10;;;;;;5067249;28;45423;-75
2021/12/04 07:21:39;;;;;;;0.90;0.43;;;17.50;56.50;;;;;;5072189;28;46501;-76
2021/12/04 07:24:06;;;;;;;0.30;0.30;;;17.50;56.50;;;;;;5071351;28;45530;-73
2021/12/04 07:26:32;;;;;;;0.40;0.40;;;17.50;56.80;;;;;;5072926;28;47396;-74
2021/12/04 07:28:59;;;;;;;0.30;0.30;;;17.60;56.60;;;;;;5074451;28;45259;-73
2021/12/04 07:31:26;;;;;;;0.40;0.40;;;17.60;56.50;;;;;;5073457;28;45385;-73
2021/12/04 07:33:53;;;;;;;0.43;0.40;;;17.60;56.90;;;;;;5069835;28;45137;-73
2021/12/04 07:36:22;;;;;;;0.45;0.30;;;17.60;56.60;;;;;;5065316;28;45315;-73
2021/12/04 07:38:50;;;;;;;0.57;0.40;;;17.60;56.80;;;;;;5067314;28;45523;-73
2021/12/04 07:41:17;;;;;;;19.42;1.90;;;17.60;56.50;;;;;;5070318;28;45311;-74
2021/12/04 07:43:46;;;;;;;10.00;1.00;;;17.60;56.90;;;;;;5081100;28;45445;-74
2021/12/04 07:46:12;;;;;;;1.95;0.52;;;17.70;57.70;;;;;;5070016;28;47409;-74
2021/12/04 07:48:39;;;;;;;1.10;0.45;;;17.80;57.00;;;;;;5074503;28;45110;-74
2021/12/04 07:51:06;;;;;;;0.82;0.45;;;17.60;55.70;;;;;;5070381;28;45180;-75
2021/12/04 07:53:34;;;;;;;2.10;0.70;;;17.60;56.00;;;;;;5050518;28;45194;-75
2021/12/04 07:56:03;;;;;;;1.08;0.60;;;17.60;55.90;;;;;;5077861;28;48029;-74
2021/12/04 07:58:31;;;;;;;1.02;0.40;;;17.60;55.10;;;;;;5064968;28;45483;-74
2021/12/04 08:00:58;;;;;;;1.58;0.50;;;17.60;54.90;;;;;;5067131;28;45515;-74
2021/12/04 08:03:25;;;;;;;2.22;0.70;;;17.60;55.00;;;;;;5073728;28;45320;-74
2021/12/04 08:05:52;;;;;;;1.13;0.60;;;17.60;54.90;;;;;;5062336;28;46639;-74
2021/12/04 08:08:19;;;;;;;1.05;0.40;;;17.60;55.00;;;;;;5075037;28;45459;-74
2021/12/04 08:10:46;;;;;;;0.52;0.50;;;17.70;55.10;;;;;;5069027;28;45209;-74
2021/12/04 08:13:14;;;;;;;0.45;0.40;;;17.60;55.10;;;;;;5068469;28;45455;-75
2021/12/04 08:15:41;;;;;;;1.95;0.70;;;17.60;55.20;;;;;;5061800;28;45451;-75
2021/12/04 08:18:09;;;;;;;1.02;0.70;;;17.60;55.10;;;;;;5079509;28;45373;-75
2021/12/04 08:20:36;;;;;;;0.55;0.55;;;17.70;55.10;;;;;;5087423;28;45336;-75
2021/12/04 08:23:03;;;;;;;0.43;0.40;;;17.70;55.00;;;;;;5083133;28;45477;-74
2021/12/04 08:25:31;;;;;;;2.90;0.60;;;17.70;55.10;;;;;;5084183;28;47412;-74
2021/12/04 08:27:58;;;;;;;1.00;0.60;;;17.70;54.80;;;;;;5079608;28;45223;-74
2021/12/04 08:30:29;;;;;;;2.08;0.50;;;17.70;54.60;;;;;;5075624;28;45351;-74
2021/12/04 08:32:57;;;;;;;0.73;0.40;;;17.70;54.40;;;;;;5061743;28;45291;-74
2021/12/04 08:35:28;;;;;;;0.50;0.50;;;17.70;54.20;;;;;;5062470;28;47931;-74
2021/12/04 08:37:58;;;;;;;1.52;0.60;;;17.70;54.10;;;;;;5068798;28;45311;-74
2021/12/04 08:40:25;;;;;;;0.50;0.50;;;17.70;54.20;;;;;;5072028;28;45308;-74
2021/12/04 08:42:52;;;;;;;0.65;0.60;;;17.80;54.00;;;;;;5083204;28;45503;-74
2021/12/04 08:45:20;;;;;;;1.05;0.65;;;17.90;54.20;;;;;;5085459;28;46979;-74
2021/12/04 08:47:49;;;;;;;1.13;0.60;;;17.80;54.00;;;;;;5080308;28;45244;-74
2021/12/04 08:50:18;;;;;;;0.68;0.50;;;17.80;53.90;;;;;;5075997;27;45644;-74
2021/12/04 08:52:44;;;;;;;1.15;0.60;;;17.80;54.00;;;;;;5087578;28;45384;-74
2021/12/04 08:55:12;;;;;;;0.93;0.60;;;17.80;54.40;;;;;;5071915;28;45220;-74
2021/12/04 08:57:39;;;;;;;0.93;0.57;;;17.80;54.50;;;;;;5078786;28;45404;-74
2021/12/04 09:00:09;;;;;;;0.73;0.57;;;17.80;54.50;;;;;;5068020;28;45137;-74
2021/12/04 09:02:37;;;;;;;0.93;0.68;;;17.80;54.60;;;;;;5068639;28;45278;-74
2021/12/04 09:05:07;;;;;;;0.82;0.60;;;17.80;54.40;;;;;;5054366;28;46153;-74
2021/12/04 09:07:34;;;;;;;0.43;0.43;;;17.80;54.40;;;;;;5064384;28;45234;-74
2021/12/04 09:10:00;;;;;;;0.95;0.60;;;17.80;54.40;;;;;;5071402;28;45412;-74
2021/12/04 09:12:28;;;;;;;0.68;0.55;;;17.80;54.40;;;;;;5075041;28;45299;-74
2021/12/04 09:14:57;;;;;;;0.47;0.40;;;17.80;54.40;;;;;;5067715;28;47741;-75
2021/12/04 09:17:24;;;;;;;0.75;0.57;;;17.80;54.40;;;;;;5067196;28;45225;-75
2021/12/04 09:19:51;;;;;;;0.45;0.40;;;17.80;54.40;;;;;;5064769;28;45148;-74
2021/12/04 09:22:27;;;;;;;1.50;0.60;;;17.80;54.50;;;;;;5066803;28;45359;-74
2021/12/04 09:24:55;;;;;;;0.77;0.70;;;17.80;54.30;;;;;;5069978;28;46544;-74
2021/12/04 09:27:35;;;;;;;0.73;0.60;;;17.80;54.00;;;;;;5078233;28;46191;-74
2021/12/04 09:30:14;;;;;;;0.50;0.50;;;17.90;54.10;;;;;;5065851;28;45194;-75
2021/12/04 09:33:06;;;;;;;1.13;0.60;;;17.80;53.70;;;;;;5067001;28;45195;-74
2021/12/04 10:00:37;;;;;;;0.45;0.45;;;17.80;55.00;;;;;;5065127;28;45203;-75
2021/12/04 10:20:06;;;;;;;1.13;0.70;;;17.80;56.30;;;;;;5070715;28;45509;-74
2021/12/04 10:22:38;;;;;;;1.02;0.60;;;17.80;55.60;;;;;;5066675;28;45275;-74
2021/12/04 10:33:40;;;;;;;2.35;0.55;;;17.80;57.70;;;;;;5066139;28;45536;-73
2021/12/04 10:36:07;;;;;;;0.50;0.47;;;17.80;57.20;;;;;;5082939;28;46016;-74
2021/12/04 10:38:40;;;;;;;1.15;0.60;;;17.80;56.50;;;;;;5073880;28;45260;-74
2021/12/04 10:41:07;;;;;;;0.75;0.60;;;17.80;56.30;;;;;;5066553;28;45302;-74
2021/12/04 10:43:36;;;;;;;0.60;0.60;;;17.80;56.30;;;;;;5068294;28;45358;-74
2021/12/04 10:46:11;;;;;;;1.25;0.60;;;17.80;57.00;;;;;;5067500;28;45189;-74
2021/12/04 10:48:45;;;;;;;0.93;0.80;;;17.80;57.60;;;;;;5064926;28;45558;-74
2021/12/04 10:51:21;;;;;;;0.75;0.57;;;17.80;57.80;;;;;;5068428;28;48282;-74
2021/12/04 10:53:49;;;;;;;0.63;0.38;;;17.80;57.90;;;;;;5063803;28;45317;-74
2021/12/04 10:56:27;;;;;;;0.50;0.50;;;17.80;58.00;;;;;;5064165;28;45210;-74
2021/12/04 11:01:51;;;;;;;0.47;0.40;;;17.80;58.20;;;;;;5065481;28;45422;-74
2021/12/04 11:04:31;;;;;;;0.52;0.40;;;17.80;58.30;;;;;;5068969;28;45324;-74
2021/12/04 11:21:31;;;;;;;0.93;0.70;;;17.80;58.40;;;;;;5065417;28;45335;-74
2021/12/04 11:27:08;;;;;;;1.25;0.60;;;17.80;58.70;;;;;;5054867;28;45193;-75
2021/12/04 11:35:55;;;;;;;0.45;0.45;;;17.80;58.60;;;;;;5061071;28;45180;-75
2021/12/04 11:38:23;;;;;;;0.80;0.40;;;17.80;58.80;;;;;;5061976;28;45476;-74
2021/12/04 11:41:14;;;;;;;1.00;0.60;;;17.80;59.10;;;;;;5062511;28;45278;-74
2021/12/04 11:43:53;;;;;;;0.95;0.50;;;17.80;59.00;;;;;;5072783;28;45652;-74
2021/12/04 11:46:23;;;;;;;1.40;0.50;;;17.80;59.00;;;;;;5063932;28;46838;-74
2021/12/04 11:48:52;;;;;;;1.48;0.40;;;17.80;59.20;;;;;;5052898;28;45160;-74
2021/12/04 11:51:21;;;;;;;0.60;0.50;;;17.80;59.20;;;;;;5067926;28;45383;-74
2021/12/04 11:53:49;;;;;;;0.95;0.50;;;17.80;59.20;;;;;;5069094;28;45810;-74
2021/12/04 11:56:18;;;;;;;0.47;0.38;;;17.80;59.10;;;;;;5069047;28;47200;-75
2021/12/04 11:58:47;;;;;;;0.40;0.40;;;17.90;59.20;;;;;;5068622;28;45196;-75
2021/12/04 12:01:24;;;;;;;0.40;0.40;;;17.90;59.10;;;;;;5052427;28;45233;-75
2021/12/04 12:03:55;;;;;;;0.52;0.40;;;17.90;59.10;;;;;;5072221;28;45332;-75
2021/12/04 12:06:34;;;;;;;0.50;0.32;;;17.90;59.00;;;;;;5086902;28;45329;-75
2021/12/04 12:09:06;;;;;;;0.60;0.50;;;17.90;59.10;;;;;;5056183;28;45963;-75
2021/12/04 12:11:33;;;;;;;0.35;0.35;;;17.90;59.20;;;;;;5049301;28;45407;-75
2021/12/04 12:14:05;;;;;;;0.47;0.45;;;17.90;59.20;;;;;;5050174;28;45303;-75
2021/12/04 12:16:37;;;;;;;1.35;0.55;;;17.90;59.20;;;;;;5056075;28;45240;-75
2021/12/04 12:19:08;;;;;;;0.50;0.50;;;17.90;59.00;;;;;;5067060;28;45257;-75
2021/12/04 12:21:45;;;;;;;0.60;0.43;;;17.90;59.00;;;;;;5070941;28;45301;-75
2021/12/04 12:24:32;;;;;;;0.50;0.40;;;17.90;59.10;;;;;;5088663;28;45235;-75
2021/12/04 12:27:14;;;;;;;0.80;0.40;;;17.90;59.10;;;;;;5046392;28;46821;-75
2021/12/04 12:32:42;;;;;;;0.60;0.45;;;17.90;59.00;;;;;;5062590;28;45606;-75
2021/12/04 12:38:06;;;;;;;1.02;0.60;;;17.90;60.10;;;;;;5056201;28;45235;-74
2021/12/04 12:40:33;;;;;;;0.73;0.60;;;17.90;61.00;;;;;;5063723;28;45565;-75
2021/12/04 12:43:11;;;;;;;0.63;0.50;;;17.90;61.80;;;;;;5066198;28;45224;-75
2021/12/04 12:45:38;;;;;;;0.47;0.47;;;18.10;61.40;;;;;;5073614;28;45263;-75
2021/12/04 12:48:08;;;;;;;0.93;0.40;;;18.20;61.10;;;;;;5065114;28;45494;-75
2021/12/04 12:50:39;;;;;;;0.47;0.40;;;18.40;61.00;;;;;;5064064;28;45198;-75
2021/12/04 12:53:09;;;;;;;0.50;0.50;;;18.60;61.00;;;;;;5064985;28;45185;-75
2021/12/04 12:55:37;;;;;;;0.88;0.40;;;18.80;61.10;;;;;;5087092;28;45232;-75
2021/12/04 12:58:20;;;;;;;0.73;0.38;;;18.90;61.00;;;;;;5084608;28;45438;-75
2021/12/04 13:12:02;;;;;;;0.63;0.50;;;19.80;62.70;;;;;;5068060;28;45330;-75
2021/12/04 13:14:31;;;;;;;0.73;0.50;;;19.90;62.80;;;;;;5087022;28;45221;-75
2021/12/04 13:17:04;;;;;;;0.98;0.57;;;20.00;63.50;;;;;;5079052;28;45431;-75
2021/12/04 13:19:32;;;;;;;1.42;0.60;;;20.10;63.40;;;;;;5048707;28;46482;-75
2021/12/04 13:22:03;;;;;;;2.30;0.50;;;20.20;63.70;;;;;;5061327;28;45233;-75
2021/12/04 13:24:37;;;;;;;1.10;0.70;;;20.20;63.10;;;;;;5082006;28;45220;-75
2021/12/04 13:29:39;;;;;;;0.75;0.70;;;20.40;62.80;;;;;;5087571;28;45898;-74
2021/12/04 13:32:07;;;;;;;1.63;0.60;;;20.40;63.50;;;;;;5071724;28;45373;-74
2021/12/04 13:34:35;;;;;;;1.00;0.65;;;20.40;63.10;;;;;;5087883;28;45171;-74
2021/12/04 13:37:04;;;;;;;1.60;0.60;;;20.50;63.10;;;;;;5074914;28;45490;-76
2021/12/04 13:39:32;;;;;;;2.95;0.80;;;20.40;63.10;;;;;;5075807;28;45378;-75
2021/12/04 13:42:00;;;;;;;0.73;0.40;;;20.50;64.00;;;;;;5069417;28;45985;-74
2021/12/04 13:44:30;;;;;;;2.35;0.65;;;20.60;63.30;;;;;;5071064;28;45383;-75
2021/12/04 13:47:01;;;;;;;2.28;1.00;;;20.60;63.40;;;;;;5081000;28;45187;-75
2021/12/04 13:49:33;;;;;;;12.48;1.58;;;20.60;62.60;;;;;;5082720;28;46430;-75
2021/12/04 13:52:05;;;;;;;2.90;0.93;;;20.60;63.50;;;;;;5081207;28;45295;-77
2021/12/04 13:54:34;;;;;;;4.28;1.10;;;20.50;62.30;;;;;;5082419;28;45230;-77
2021/12/04 13:57:01;;;;;;;5.75;1.00;;;20.60;62.50;;;;;;5088763;28;45332;-79
2021/12/04 13:59:29;;;;;;;4.50;1.17;;;20.60;63.00;;;;;;5066745;28;45553;-77
2021/12/04 14:01:56;;;;;;;4.28;1.08;;;20.60;62.10;;;;;;5089017;28;46464;-77
2021/12/04 14:04:23;;;;;;;1.50;0.90;;;20.60;62.90;;;;;;5055988;28;45324;-77
2021/12/04 14:06:52;;;;;;;3.08;0.93;;;20.80;62.50;;;;;;5075328;28;45245;-74
2021/12/04 14:09:22;;;;;;;2.13;0.95;;;20.80;62.30;;;;;;5071467;28;47579;-77
2021/12/04 14:11:49;;;;;;;4.70;1.27;;;20.70;62.60;;;;;;5068139;28;45402;-77
2021/12/04 14:14:18;;;;;;;7.65;1.27;;;20.70;61.70;;;;;;5090749;28;45248;-77
2021/12/04 14:16:50;;;;;;;1.45;0.80;;;20.70;61.60;;;;;;5070981;28;45565;-77
2021/12/04 14:19:20;;;;;;;3.72;0.95;;;20.60;61.20;;;;;;5069531;28;45517;-77
2021/12/04 14:21:56;;;;;;;4.32;1.00;;;20.50;61.00;;;;;;5071482;28;45371;-77
2021/12/04 14:24:32;;;;;;;2.85;1.33;;;20.00;61.00;;;;;;5086518;28;45326;-78
2021/12/04 14:27:03;;;;;;;3.13;1.10;;;19.80;61.70;;;;;;5071079;28;45442;-77
2021/12/04 14:29:35;;;;;;;1.92;0.93;;;19.60;62.10;;;;;;5071591;28;46188;-77
2021/12/04 14:32:02;;;;;;;2.33;1.08;;;19.40;62.20;;;;;;5068469;28;45539;-76
2021/12/04 14:34:31;;;;;;;2.47;0.98;;;19.30;62.30;;;;;;5081643;28;45355;-76
2021/12/04 14:37:10;;;;;;;3.55;1.42;;;19.30;62.50;;;;;;5071153;28;45223;-77
2021/12/04 14:39:39;;;;;;;3.00;1.27;;;19.20;62.70;;;;;;5073364;28;47325;-77
2021/12/04 14:42:15;;;;;;;3.58;1.30;;;19.10;62.50;;;;;;5082917;28;45272;-77
2021/12/04 14:44:43;;;;;;;2.72;1.02;;;19.10;62.60;;;;;;5075450;28;45316;-78
2021/12/04 14:47:10;;;;;;;4.50;1.30;;;19.00;62.60;;;;;;5083013;28;45283;-77
2021/12/04 14:49:40;;;;;;;1.17;0.80;;;19.00;62.60;;;;;;5082121;28;47912;-78
2021/12/04 14:52:07;;;;;;;24.75;3.17;;;19.00;62.60;;;;;;5082883;28;45409;-76
2021/12/04 14:54:38;;;;;;;7.22;1.52;;;19.00;65.20;;;;;;5063837;28;45402;-76
2021/12/04 14:57:15;;;;;;;7.18;1.67;;;19.00;64.50;;;;;;5061319;28;45407;-76
2021/12/04 14:59:42;;;;;;;4.93;1.60;;;19.10;64.60;;;;;;5062673;28;45482;-76
2021/12/04 15:02:15;;;;;;;7.78;1.30;;;19.00;64.40;;;;;;5058071;28;45285;-76
2021/12/04 15:04:42;;;;;;;8.30;1.33;;;19.00;64.40;;;;;;5069491;28;45255;-77
2021/12/04 15:07:19;;;;;;;3.85;1.45;;;19.00;64.50;;;;;;5067492;28;46524;-77
2021/12/04 15:09:46;;;;;;;2.53;1.30;;;19.00;64.30;;;;;;5059216;28;47535;-77
2021/12/04 15:12:24;;;;;;;8.00;1.20;;;19.00;64.30;;;;;;5063707;28;45579;-77
2021/12/04 15:14:56;;;;;;;8.75;1.20;;;19.00;64.30;;;;;;5069978;28;45413;-77
2021/12/04 15:17:24;;;;;;;2.15;0.90;;;18.90;64.10;;;;;;5070327;28;45347;-77
2021/12/04 15:19:53;;;;;;;6.90;1.35;;;18.90;64.00;;;;;;5057335;28;47128;-77
2021/12/04 15:22:27;;;;;;;3.90;1.20;;;18.90;64.10;;;;;;5059990;28;46392;-77